sensor_id;sensor_type;location;lat;lon;timestamp;P1;durP1;ratioP1;P2;durP2;ratioP2
9117;SDS011;4594;50.994;7.126;2023-10-31T00:02:14;1.60;;;1.60;;
9117;SDS011;4594;50.994;7.126;2023-10-31T00:04:40;1.43;;;1.43;;
9117;SDS011;4594;50.994;7.126;2023-10-31T00:07:06;1.50;;;1.50;;
9117;SDS011;4594;50.994;7.126;2023-10-31T00:09:32;1.43;;;1.43;;
9117;SDS011;4594;50.994;7.126;2023-10-31T00:11:58;1.50;;;1.50;;
9117;SDS011;4594;50.994;7.126;2023-10-31T00:14:24;1.60;;;1.60;;
9117;SDS011;4594;50.994;7.126;2023-10-31T00:16:50;2.77;;;1.40;;
9117;SDS011;4594;50.994;7.126;2023-10-31T00:19:15;2.00;;;2.00;;
9117;SDS011;4594;50.994;7.126;2023-10-31T00:21:41;1.60;;;1.60;;
9117;SDS011;4594;50.994;7.126;2023-10-31T00:24:07;1.80;;;1.80;;
9117;SDS011;4594;50.994;7.126;2023-10-31T00:26:33;1.83;;;1.73;;
9117;SDS011;4594;50.994;7.126;2023-10-31T00:28:58;2.10;;;2.00;;
9117;SDS011;4594;50.994;7.126;2023-10-31T00:31:24;1.87;;;1.87;;
9117;SDS011;4594;50.994;7.126;2023-10-31T00:33:50;5.47;;;1.90;;
9117;SDS011;4594;50.994;7.126;2023-10-31T00:36:15;2.10;;;2.10;;
9117;SDS011;4594;50.994;7.126;2023-10-31T00:38:41;2.20;;;2.10;;
9117;SDS011;4594;50.994;7.126;2023-10-31T00:41:07;2.80;;;2.30;;
9117;SDS011;4594;50.994;7.126;2023-10-31T00:43:32;2.77;;;2.03;;
9117;SDS011;4594;50.994;7.126;2023-10-31T00:45:58;2.80;;;2.70;;
9117;SDS011;4594;50.994;7.126;2023-10-31T00:48:24;3.27;;;2.90;;
9117;SDS011;4594;50.994;7.126;2023-10-31T00:50:50;2.30;;;2.30;;
9117;SDS011;4594;50.994;7.126;2023-10-31T00:53:15;2.80;;;2.70;;
9117;SDS011;4594;50.994;7.126;2023-10-31T00:55:41;2.80;;;2.70;;
9117;SDS011;4594;50.994;7.126;2023-10-31T00:58:07;6.03;;;2.87;;
9117;SDS011;4594;50.994;7.126;2023-10-31T01:00:33;2.70;;;2.60;;
9117;SDS011;4594;50.994;7.126;2023-10-31T01:02:59;3.03;;;2.93;;
9117;SDS011;4594;50.994;7.126;2023-10-31T01:05:25;2.80;;;2.70;;
9117;SDS011;4594;50.994;7.126;2023-10-31T01:07:53;2.60;;;2.50;;
9117;SDS011;4594;50.994;7.126;2023-10-31T01:10:19;3.03;;;2.93;;
9117;SDS011;4594;50.994;7.126;2023-10-31T01:12:45;2.73;;;2.63;;
9117;SDS011;4594;50.994;7.126;2023-10-31T01:15:11;2.90;;;2.70;;
9117;SDS011;4594;50.994;7.126;2023-10-31T01:17:36;3.77;;;2.60;;
9117;SDS011;4594;50.994;7.126;2023-10-31T01:20:02;2.40;;;2.30;;
9117;SDS011;4594;50.994;7.126;2023-10-31T01:22:28;2.30;;;2.30;;
9117;SDS011;4594;50.994;7.126;2023-10-31T01:24:54;2.50;;;2.27;;
9117;SDS011;4594;50.994;7.126;2023-10-31T01:27:20;2.07;;;2.03;;
9117;SDS011;4594;50.994;7.126;2023-10-31T01:29:45;2.30;;;2.20;;
9117;SDS011;4594;50.994;7.126;2023-10-31T01:32:11;3.60;;;2.10;;
9117;SDS011;4594;50.994;7.126;2023-10-31T01:34:37;2.03;;;2.03;;
9117;SDS011;4594;50.994;7.126;2023-10-31T01:37:02;2.43;;;2.23;;
9117;SDS011;4594;50.994;7.126;2023-10-31T01:39:28;2.47;;;2.30;;
9117;SDS011;4594;50.994;7.126;2023-10-31T01:41:54;2.30;;;2.17;;
9117;SDS011;4594;50.994;7.126;2023-10-31T01:44:20;2.07;;;1.93;;
9117;SDS011;4594;50.994;7.126;2023-10-31T01:46:46;1.97;;;1.93;;
9117;SDS011;4594;50.994;7.126;2023-10-31T01:49:12;2.13;;;2.03;;
9117;SDS011;4594;50.994;7.126;2023-10-31T01:51:40;3.20;;;1.90;;
9117;SDS011;4594;50.994;7.126;2023-10-31T01:54:07;3.57;;;1.80;;
9117;SDS011;4594;50.994;7.126;2023-10-31T01:56:35;2.10;;;2.10;;
9117;SDS011;4594;50.994;7.126;2023-10-31T01:59:01;3.37;;;2.30;;
9117;SDS011;4594;50.994;7.126;2023-10-31T02:01:27;3.23;;;2.10;;
9117;SDS011;4594;50.994;7.126;2023-10-31T02:03:53;5.27;;;2.50;;
9117;SDS011;4594;50.994;7.126;2023-10-31T02:06:19;2.10;;;2.00;;
9117;SDS011;4594;50.994;7.126;2023-10-31T02:08:47;2.93;;;2.03;;
9117;SDS011;4594;50.994;7.126;2023-10-31T02:11:13;2.53;;;2.13;;
9117;SDS011;4594;50.994;7.126;2023-10-31T02:13:38;2.27;;;2.10;;
9117;SDS011;4594;50.994;7.126;2023-10-31T02:16:04;3.13;;;2.10;;
9117;SDS011;4594;50.994;7.126;2023-10-31T02:18:31;1.93;;;1.90;;
9117;SDS011;4594;50.994;7.126;2023-10-31T02:20:58;2.00;;;1.90;;
9117;SDS011;4594;50.994;7.126;2023-10-31T02:23:24;2.30;;;2.17;;
9117;SDS011;4594;50.994;7.126;2023-10-31T02:25:50;2.27;;;2.07;;
9117;SDS011;4594;50.994;7.126;2023-10-31T02:28:15;2.50;;;1.70;;
9117;SDS011;4594;50.994;7.126;2023-10-31T02:30:41;2.37;;;2.20;;
9117;SDS011;4594;50.994;7.126;2023-10-31T02:33:07;2.37;;;2.17;;
9117;SDS011;4594;50.994;7.126;2023-10-31T02:35:32;2.87;;;2.13;;
9117;SDS011;4594;50.994;7.126;2023-10-31T02:37:58;2.37;;;2.10;;
9117;SDS011;4594;50.994;7.126;2023-10-31T02:40:24;2.10;;;2.00;;
9117;SDS011;4594;50.994;7.126;2023-10-31T02:42:49;1.67;;;1.67;;
9117;SDS011;4594;50.994;7.126;2023-10-31T02:45:15;2.10;;;1.90;;
9117;SDS011;4594;50.994;7.126;2023-10-31T02:47:41;2.20;;;2.10;;
9117;SDS011;4594;50.994;7.126;2023-10-31T02:50:07;1.93;;;1.83;;
9117;SDS011;4594;50.994;7.126;2023-10-31T02:52:33;3.17;;;2.10;;
9117;SDS011;4594;50.994;7.126;2023-10-31T02:54:59;2.10;;;2.00;;
9117;SDS011;4594;50.994;7.126;2023-10-31T02:57:25;3.47;;;2.10;;
9117;SDS011;4594;50.994;7.126;2023-10-31T02:59:50;1.93;;;1.87;;
9117;SDS011;4594;50.994;7.126;2023-10-31T03:02:16;2.10;;;2.00;;
9117;SDS011;4594;50.994;7.126;2023-10-31T03:04:42;2.40;;;2.10;;
9117;SDS011;4594;50.994;7.126;2023-10-31T03:07:07;2.00;;;1.90;;
9117;SDS011;4594;50.994;7.126;2023-10-31T03:09:33;4.30;;;2.57;;
9117;SDS011;4594;50.994;7.126;2023-10-31T03:11:58;3.13;;;2.20;;
9117;SDS011;4594;50.994;7.126;2023-10-31T03:14:24;1.97;;;1.90;;
9117;SDS011;4594;50.994;7.126;2023-10-31T03:16:50;1.80;;;1.63;;
9117;SDS011;4594;50.994;7.126;2023-10-31T03:19:16;2.17;;;2.07;;
9117;SDS011;4594;50.994;7.126;2023-10-31T03:21:41;1.90;;;1.80;;
9117;SDS011;4594;50.994;7.126;2023-10-31T03:24:07;2.07;;;1.97;;
9117;SDS011;4594;50.994;7.126;2023-10-31T03:26:33;2.20;;;2.10;;
9117;SDS011;4594;50.994;7.126;2023-10-31T03:28:59;2.00;;;1.90;;
9117;SDS011;4594;50.994;7.126;2023-10-31T03:31:24;2.63;;;2.20;;
9117;SDS011;4594;50.994;7.126;2023-10-31T03:33:50;1.70;;;1.70;;
9117;SDS011;4594;50.994;7.126;2023-10-31T03:36:16;2.83;;;1.90;;
9117;SDS011;4594;50.994;7.126;2023-10-31T03:38:42;2.17;;;2.03;;
9117;SDS011;4594;50.994;7.126;2023-10-31T03:41:08;2.00;;;1.90;;
9117;SDS011;4594;50.994;7.126;2023-10-31T03:43:34;1.77;;;1.73;;
9117;SDS011;4594;50.994;7.126;2023-10-31T03:46:00;1.93;;;1.83;;
9117;SDS011;4594;50.994;7.126;2023-10-31T03:48:26;2.50;;;2.07;;
9117;SDS011;4594;50.994;7.126;2023-10-31T03:50:52;2.37;;;2.17;;
9117;SDS011;4594;50.994;7.126;2023-10-31T03:53:17;3.47;;;1.80;;
9117;SDS011;4594;50.994;7.126;2023-10-31T03:55:43;2.60;;;2.00;;
9117;SDS011;4594;50.994;7.126;2023-10-31T03:58:09;1.70;;;1.60;;
9117;SDS011;4594;50.994;7.126;2023-10-31T04:00:35;1.90;;;1.90;;
9117;SDS011;4594;50.994;7.126;2023-10-31T04:03:00;1.90;;;1.80;;
9117;SDS011;4594;50.994;7.126;2023-10-31T04:05:26;1.70;;;1.70;;
9117;SDS011;4594;50.994;7.126;2023-10-31T04:07:52;1.70;;;1.60;;
9117;SDS011;4594;50.994;7.126;2023-10-31T04:10:18;2.00;;;1.80;;
9117;SDS011;4594;50.994;7.126;2023-10-31T04:12:44;1.80;;;1.70;;
9117;SDS011;4594;50.994;7.126;2023-10-31T04:15:10;1.70;;;1.70;;
9117;SDS011;4594;50.994;7.126;2023-10-31T04:17:37;2.00;;;1.90;;
9117;SDS011;4594;50.994;7.126;2023-10-31T04:20:03;2.03;;;1.90;;
9117;SDS011;4594;50.994;7.126;2023-10-31T04:22:29;1.83;;;1.73;;
9117;SDS011;4594;50.994;7.126;2023-10-31T04:24:55;1.63;;;1.63;;
9117;SDS011;4594;50.994;7.126;2023-10-31T04:27:21;5.40;;;1.77;;
9117;SDS011;4594;50.994;7.126;2023-10-31T04:29:47;3.73;;;2.03;;
9117;SDS011;4594;50.994;7.126;2023-10-31T04:32:13;1.83;;;1.77;;
9117;SDS011;4594;50.994;7.126;2023-10-31T04:34:39;2.13;;;1.93;;
9117;SDS011;4594;50.994;7.126;2023-10-31T04:37:05;2.80;;;1.87;;
9117;SDS011;4594;50.994;7.126;2023-10-31T04:39:30;1.70;;;1.70;;
9117;SDS011;4594;50.994;7.126;2023-10-31T04:41:56;3.80;;;2.20;;
9117;SDS011;4594;50.994;7.126;2023-10-31T04:44:22;1.97;;;1.90;;
9117;SDS011;4594;50.994;7.126;2023-10-31T04:46:48;2.00;;;1.90;;
9117;SDS011;4594;50.994;7.126;2023-10-31T04:49:13;1.93;;;1.73;;
9117;SDS011;4594;50.994;7.126;2023-10-31T04:51:41;2.20;;;1.80;;
9117;SDS011;4594;50.994;7.126;2023-10-31T04:54:07;3.63;;;2.00;;
9117;SDS011;4594;50.994;7.126;2023-10-31T04:56:33;1.80;;;1.80;;
9117;SDS011;4594;50.994;7.126;2023-10-31T04:58:59;1.60;;;1.60;;
9117;SDS011;4594;50.994;7.126;2023-10-31T05:01:25;1.80;;;1.73;;
9117;SDS011;4594;50.994;7.126;2023-10-31T05:03:50;2.30;;;2.10;;
9117;SDS011;4594;50.994;7.126;2023-10-31T05:06:20;1.70;;;1.63;;
9117;SDS011;4594;50.994;7.126;2023-10-31T05:08:47;2.23;;;2.07;;
9117;SDS011;4594;50.994;7.126;2023-10-31T05:11:16;1.80;;;1.70;;
9117;SDS011;4594;50.994;7.126;2023-10-31T05:13:45;2.10;;;2.00;;
9117;SDS011;4594;50.994;7.126;2023-10-31T05:16:11;2.00;;;1.83;;
9117;SDS011;4594;50.994;7.126;2023-10-31T05:18:37;1.80;;;1.70;;
9117;SDS011;4594;50.994;7.126;2023-10-31T05:21:03;1.70;;;1.60;;
9117;SDS011;4594;50.994;7.126;2023-10-31T05:23:30;1.70;;;1.70;;
9117;SDS011;4594;50.994;7.126;2023-10-31T05:25:55;1.97;;;1.90;;
9117;SDS011;4594;50.994;7.126;2023-10-31T05:28:21;2.00;;;1.90;;
9117;SDS011;4594;50.994;7.126;2023-10-31T05:30:48;2.77;;;1.80;;
9117;SDS011;4594;50.994;7.126;2023-10-31T05:33:14;1.83;;;1.83;;
9117;SDS011;4594;50.994;7.126;2023-10-31T05:35:41;2.10;;;1.70;;
9117;SDS011;4594;50.994;7.126;2023-10-31T05:38:07;1.93;;;1.83;;
9117;SDS011;4594;50.994;7.126;2023-10-31T05:40:33;1.60;;;1.60;;
9117;SDS011;4594;50.994;7.126;2023-10-31T05:43:00;2.07;;;1.97;;
9117;SDS011;4594;50.994;7.126;2023-10-31T05:45:27;1.80;;;1.80;;
9117;SDS011;4594;50.994;7.126;2023-10-31T05:47:53;2.00;;;2.00;;
9117;SDS011;4594;50.994;7.126;2023-10-31T05:50:19;6.00;;;2.33;;
9117;SDS011;4594;50.994;7.126;2023-10-31T05:52:44;2.00;;;2.00;;
9117;SDS011;4594;50.994;7.126;2023-10-31T05:55:10;2.10;;;2.00;;
9117;SDS011;4594;50.994;7.126;2023-10-31T05:57:36;3.17;;;2.20;;
9117;SDS011;4594;50.994;7.126;2023-10-31T06:00:01;2.03;;;1.97;;
9117;SDS011;4594;50.994;7.126;2023-10-31T06:02:27;1.90;;;1.90;;
9117;SDS011;4594;50.994;7.126;2023-10-31T06:04:54;2.37;;;2.17;;
9117;SDS011;4594;50.994;7.126;2023-10-31T06:07:20;2.30;;;2.20;;
9117;SDS011;4594;50.994;7.126;2023-10-31T06:09:46;2.10;;;2.00;;
9117;SDS011;4594;50.994;7.126;2023-10-31T06:12:12;2.40;;;2.00;;
9117;SDS011;4594;50.994;7.126;2023-10-31T06:14:37;1.97;;;1.97;;
9117;SDS011;4594;50.994;7.126;2023-10-31T06:17:03;3.80;;;2.20;;
9117;SDS011;4594;50.994;7.126;2023-10-31T06:19:29;2.07;;;1.93;;
9117;SDS011;4594;50.994;7.126;2023-10-31T06:21:59;2.27;;;2.20;;
9117;SDS011;4594;50.994;7.126;2023-10-31T06:24:25;1.97;;;1.97;;
9117;SDS011;4594;50.994;7.126;2023-10-31T06:26:50;2.37;;;2.17;;
9117;SDS011;4594;50.994;7.126;2023-10-31T06:29:17;2.23;;;2.13;;
9117;SDS011;4594;50.994;7.126;2023-10-31T06:31:43;2.10;;;2.10;;
9117;SDS011;4594;50.994;7.126;2023-10-31T06:34:09;2.33;;;2.23;;
9117;SDS011;4594;50.994;7.126;2023-10-31T06:36:34;2.07;;;2.07;;
9117;SDS011;4594;50.994;7.126;2023-10-31T06:39:00;2.10;;;2.10;;
9117;SDS011;4594;50.994;7.126;2023-10-31T06:41:26;2.50;;;2.40;;
9117;SDS011;4594;50.994;7.126;2023-10-31T06:43:51;2.37;;;2.17;;
9117;SDS011;4594;50.994;7.126;2023-10-31T06:46:17;2.40;;;2.40;;
9117;SDS011;4594;50.994;7.126;2023-10-31T06:48:43;2.70;;;2.60;;
9117;SDS011;4594;50.994;7.126;2023-10-31T06:51:08;2.67;;;2.57;;
9117;SDS011;4594;50.994;7.126;2023-10-31T06:53:34;2.63;;;2.53;;
9117;SDS011;4594;50.994;7.126;2023-10-31T06:56:00;2.70;;;2.50;;
9117;SDS011;4594;50.994;7.126;2023-10-31T06:58:25;2.97;;;2.80;;
9117;SDS011;4594;50.994;7.126;2023-10-31T07:00:51;2.50;;;2.40;;
9117;SDS011;4594;50.994;7.126;2023-10-31T07:03:17;2.87;;;2.67;;
9117;SDS011;4594;50.994;7.126;2023-10-31T07:05:42;2.73;;;2.53;;
9117;SDS011;4594;50.994;7.126;2023-10-31T07:08:08;2.40;;;2.30;;
9117;SDS011;4594;50.994;7.126;2023-10-31T07:10:34;2.63;;;2.53;;
9117;SDS011;4594;50.994;7.126;2023-10-31T07:13:00;2.70;;;2.60;;
9117;SDS011;4594;50.994;7.126;2023-10-31T07:15:26;3.23;;;2.50;;
9117;SDS011;4594;50.994;7.126;2023-10-31T07:26:09;2.70;;;2.60;;
9117;SDS011;4594;50.994;7.126;2023-10-31T07:28:35;2.97;;;2.77;;
9117;SDS011;4594;50.994;7.126;2023-10-31T07:31:01;2.70;;;2.60;;
9117;SDS011;4594;50.994;7.126;2023-10-31T07:33:27;2.80;;;2.70;;
9117;SDS011;4594;50.994;7.126;2023-10-31T07:35:53;3.53;;;3.33;;
9117;SDS011;4594;50.994;7.126;2023-10-31T07:38:18;3.07;;;2.97;;
9117;SDS011;4594;50.994;7.126;2023-10-31T07:40:44;3.50;;;3.17;;
9117;SDS011;4594;50.994;7.126;2023-10-31T07:43:10;3.40;;;3.10;;
9117;SDS011;4594;50.994;7.126;2023-10-31T07:45:35;3.67;;;3.40;;
9117;SDS011;4594;50.994;7.126;2023-10-31T07:48:01;3.67;;;3.40;;
9117;SDS011;4594;50.994;7.126;2023-10-31T07:50:27;3.70;;;3.40;;
9117;SDS011;4594;50.994;7.126;2023-10-31T07:52:52;3.60;;;3.40;;
9117;SDS011;4594;50.994;7.126;2023-10-31T07:55:18;4.30;;;3.90;;
9117;SDS011;4594;50.994;7.126;2023-10-31T07:57:44;3.73;;;3.53;;
9117;SDS011;4594;50.994;7.126;2023-10-31T08:00:10;4.17;;;3.80;;
9117;SDS011;4594;50.994;7.126;2023-10-31T08:02:37;3.67;;;3.47;;
9117;SDS011;4594;50.994;7.126;2023-10-31T08:05:03;3.73;;;3.53;;
9117;SDS011;4594;50.994;7.126;2023-10-31T08:07:29;3.40;;;3.20;;
9117;SDS011;4594;50.994;7.126;2023-10-31T08:09:58;4.20;;;3.83;;
9117;SDS011;4594;50.994;7.126;2023-10-31T08:12:24;3.77;;;3.57;;
9117;SDS011;4594;50.994;7.126;2023-10-31T08:14:49;3.40;;;3.30;;
9117;SDS011;4594;50.994;7.126;2023-10-31T08:17:15;5.17;;;3.73;;
9117;SDS011;4594;50.994;7.126;2023-10-31T08:19:41;5.80;;;3.77;;
9117;SDS011;4594;50.994;7.126;2023-10-31T08:22:07;3.83;;;3.53;;
9117;SDS011;4594;50.994;7.126;2023-10-31T08:24:33;3.90;;;3.60;;
9117;SDS011;4594;50.994;7.126;2023-10-31T08:27:01;3.90;;;3.50;;
9117;SDS011;4594;50.994;7.126;2023-10-31T08:29:27;4.67;;;3.27;;
9117;SDS011;4594;50.994;7.126;2023-10-31T08:31:53;4.43;;;4.03;;
9117;SDS011;4594;50.994;7.126;2023-10-31T08:34:18;3.70;;;3.47;;
9117;SDS011;4594;50.994;7.126;2023-10-31T08:36:44;3.80;;;3.60;;
9117;SDS011;4594;50.994;7.126;2023-10-31T08:39:09;3.63;;;3.33;;
9117;SDS011;4594;50.994;7.126;2023-10-31T08:41:35;3.27;;;2.97;;
9117;SDS011;4594;50.994;7.126;2023-10-31T08:44:02;3.40;;;3.07;;
9117;SDS011;4594;50.994;7.126;2023-10-31T08:46:28;3.10;;;3.00;;
9117;SDS011;4594;50.994;7.126;2023-10-31T08:48:54;2.87;;;2.70;;
9117;SDS011;4594;50.994;7.126;2023-10-31T08:51:20;3.00;;;2.80;;
9117;SDS011;4594;50.994;7.126;2023-10-31T08:53:45;3.37;;;3.17;;
9117;SDS011;4594;50.994;7.126;2023-10-31T08:56:11;2.50;;;2.40;;
9117;SDS011;4594;50.994;7.126;2023-10-31T08:58:37;2.50;;;2.40;;
9117;SDS011;4594;50.994;7.126;2023-10-31T09:01:03;2.17;;;2.17;;
9117;SDS011;4594;50.994;7.126;2023-10-31T09:03:28;2.60;;;2.50;;
9117;SDS011;4594;50.994;7.126;2023-10-31T09:05:54;2.40;;;2.30;;
9117;SDS011;4594;50.994;7.126;2023-10-31T09:08:20;4.53;;;2.67;;
9117;SDS011;4594;50.994;7.126;2023-10-31T09:10:45;2.67;;;2.57;;
9117;SDS011;4594;50.994;7.126;2023-10-31T09:13:11;3.37;;;2.57;;
9117;SDS011;4594;50.994;7.126;2023-10-31T09:15:38;2.37;;;2.27;;
9117;SDS011;4594;50.994;7.126;2023-10-31T09:18:04;2.40;;;2.30;;
9117;SDS011;4594;50.994;7.126;2023-10-31T09:20:29;3.23;;;2.57;;
9117;SDS011;4594;50.994;7.126;2023-10-31T09:22:55;2.47;;;2.37;;
9117;SDS011;4594;50.994;7.126;2023-10-31T09:25:21;2.53;;;2.30;;
9117;SDS011;4594;50.994;7.126;2023-10-31T09:27:46;3.83;;;2.70;;
9117;SDS011;4594;50.994;7.126;2023-10-31T09:30:12;2.50;;;2.40;;
9117;SDS011;4594;50.994;7.126;2023-10-31T09:32:38;2.90;;;2.70;;
9117;SDS011;4594;50.994;7.126;2023-10-31T09:35:04;2.50;;;2.37;;
9117;SDS011;4594;50.994;7.126;2023-10-31T09:37:30;2.40;;;2.20;;
9117;SDS011;4594;50.994;7.126;2023-10-31T09:39:56;3.50;;;2.60;;
9117;SDS011;4594;50.994;7.126;2023-10-31T09:42:22;2.00;;;2.00;;
9117;SDS011;4594;50.994;7.126;2023-10-31T09:44:48;2.90;;;2.13;;
9117;SDS011;4594;50.994;7.126;2023-10-31T09:47:13;2.33;;;2.23;;
9117;SDS011;4594;50.994;7.126;2023-10-31T09:49:40;2.27;;;2.17;;
9117;SDS011;4594;50.994;7.126;2023-10-31T09:52:06;2.40;;;2.30;;
9117;SDS011;4594;50.994;7.126;2023-10-31T09:54:33;2.30;;;2.20;;
9117;SDS011;4594;50.994;7.126;2023-10-31T09:57:00;2.47;;;2.33;;
9117;SDS011;4594;50.994;7.126;2023-10-31T09:59:26;2.50;;;2.40;;
9117;SDS011;4594;50.994;7.126;2023-10-31T10:01:52;2.27;;;2.10;;
9117;SDS011;4594;50.994;7.126;2023-10-31T10:04:17;2.20;;;2.10;;
9117;SDS011;4594;50.994;7.126;2023-10-31T10:06:59;3.60;;;2.80;;
9117;SDS011;4594;50.994;7.126;2023-10-31T10:09:27;2.23;;;2.03;;
9117;SDS011;4594;50.994;7.126;2023-10-31T10:11:54;2.43;;;2.30;;
9117;SDS011;4594;50.994;7.126;2023-10-31T10:14:24;2.00;;;1.90;;
9117;SDS011;4594;50.994;7.126;2023-10-31T10:16:56;2.10;;;2.00;;
9117;SDS011;4594;50.994;7.126;2023-10-31T10:19:22;2.13;;;2.03;;
9117;SDS011;4594;50.994;7.126;2023-10-31T10:21:52;2.00;;;1.90;;
9117;SDS011;4594;50.994;7.126;2023-10-31T10:24:20;2.77;;;2.10;;
9117;SDS011;4594;50.994;7.126;2023-10-31T10:26:47;2.23;;;2.00;;
9117;SDS011;4594;50.994;7.126;2023-10-31T10:29:14;2.10;;;2.00;;
9117;SDS011;4594;50.994;7.126;2023-10-31T10:31:40;2.50;;;1.93;;
9117;SDS011;4594;50.994;7.126;2023-10-31T10:34:07;2.30;;;2.03;;
9117;SDS011;4594;50.994;7.126;2023-10-31T10:36:34;4.73;;;1.90;;
9117;SDS011;4594;50.994;7.126;2023-10-31T10:39:00;1.90;;;1.80;;
9117;SDS011;4594;50.994;7.126;2023-10-31T10:41:28;1.80;;;1.70;;
9117;SDS011;4594;50.994;7.126;2023-10-31T10:44:04;1.70;;;1.60;;
9117;SDS011;4594;50.994;7.126;2023-10-31T10:46:33;2.30;;;2.10;;
9117;SDS011;4594;50.994;7.126;2023-10-31T10:49:04;1.77;;;1.67;;
9117;SDS011;4594;50.994;7.126;2023-10-31T10:57:42;4.77;;;1.60;;
9117;SDS011;4594;50.994;7.126;2023-10-31T11:00:21;1.60;;;1.60;;
9117;SDS011;4594;50.994;7.126;2023-10-31T11:02:50;3.23;;;1.77;;
9117;SDS011;4594;50.994;7.126;2023-10-31T11:05:18;1.63;;;1.53;;
9117;SDS011;4594;50.994;7.126;2023-10-31T11:07:45;2.03;;;1.80;;
9117;SDS011;4594;50.994;7.126;2023-10-31T11:10:12;1.63;;;1.63;;
9117;SDS011;4594;50.994;7.126;2023-10-31T11:12:39;2.20;;;1.50;;
9117;SDS011;4594;50.994;7.126;2023-10-31T11:15:06;2.40;;;2.20;;
9117;SDS011;4594;50.994;7.126;2023-10-31T11:17:35;2.17;;;2.00;;
9117;SDS011;4594;50.994;7.126;2023-10-31T11:20:07;1.50;;;1.50;;
9117;SDS011;4594;50.994;7.126;2023-10-31T11:22:42;2.00;;;1.90;;
9117;SDS011;4594;50.994;7.126;2023-10-31T11:25:20;2.37;;;1.50;;
9117;SDS011;4594;50.994;7.126;2023-10-31T11:27:49;1.60;;;1.60;;
9117;SDS011;4594;50.994;7.126;2023-10-31T11:32:59;1.50;;;1.40;;
9117;SDS011;4594;50.994;7.126;2023-10-31T11:35:29;2.03;;;1.50;;
9117;SDS011;4594;50.994;7.126;2023-10-31T11:38:05;1.47;;;1.40;;
9117;SDS011;4594;50.994;7.126;2023-10-31T11:40:34;2.73;;;1.50;;
9117;SDS011;4594;50.994;7.126;2023-10-31T11:43:05;1.50;;;1.50;;
9117;SDS011;4594;50.994;7.126;2023-10-31T11:45:42;1.63;;;1.63;;
9117;SDS011;4594;50.994;7.126;2023-10-31T11:48:13;1.60;;;1.50;;
9117;SDS011;4594;50.994;7.126;2023-10-31T11:50:40;2.33;;;1.47;;
9117;SDS011;4594;50.994;7.126;2023-10-31T11:53:13;1.50;;;1.40;;
9117;SDS011;4594;50.994;7.126;2023-10-31T11:55:42;1.30;;;1.30;;
9117;SDS011;4594;50.994;7.126;2023-10-31T12:00:41;1.50;;;1.50;;
9117;SDS011;4594;50.994;7.126;2023-10-31T12:03:15;1.50;;;1.40;;
9117;SDS011;4594;50.994;7.126;2023-10-31T12:05:53;1.87;;;1.77;;
9117;SDS011;4594;50.994;7.126;2023-10-31T12:08:28;1.73;;;1.63;;
9117;SDS011;4594;50.994;7.126;2023-10-31T12:11:09;1.20;;;1.20;;
9117;SDS011;4594;50.994;7.126;2023-10-31T12:13:56;1.90;;;1.50;;
9117;SDS011;4594;50.994;7.126;2023-10-31T12:16:30;1.97;;;1.70;;
9117;SDS011;4594;50.994;7.126;2023-10-31T12:18:59;4.00;;;2.00;;
9117;SDS011;4594;50.994;7.126;2023-10-31T12:21:41;1.60;;;1.50;;
9117;SDS011;4594;50.994;7.126;2023-10-31T12:24:15;1.90;;;1.80;;
9117;SDS011;4594;50.994;7.126;2023-10-31T12:26:44;2.33;;;1.60;;
9117;SDS011;4594;50.994;7.126;2023-10-31T12:29:15;4.03;;;1.80;;
9117;SDS011;4594;50.994;7.126;2023-10-31T12:31:43;2.23;;;2.03;;
9117;SDS011;4594;50.994;7.126;2023-10-31T12:34:18;2.00;;;1.90;;
9117;SDS011;4594;50.994;7.126;2023-10-31T12:36:46;2.17;;;2.00;;
9117;SDS011;4594;50.994;7.126;2023-10-31T12:39:15;1.50;;;1.50;;
9117;SDS011;4594;50.994;7.126;2023-10-31T12:41:45;5.43;;;1.67;;
9117;SDS011;4594;50.994;7.126;2023-10-31T12:44:13;3.00;;;1.80;;
9117;SDS011;4594;50.994;7.126;2023-10-31T12:46:52;2.83;;;1.60;;
9117;SDS011;4594;50.994;7.126;2023-10-31T12:49:18;1.60;;;1.40;;
9117;SDS011;4594;50.994;7.126;2023-10-31T12:51:55;1.47;;;1.40;;
9117;SDS011;4594;50.994;7.126;2023-10-31T12:54:35;1.60;;;1.30;;
9117;SDS011;4594;50.994;7.126;2023-10-31T12:57:06;4.13;;;1.60;;
9117;SDS011;4594;50.994;7.126;2023-10-31T12:59:34;1.83;;;1.73;;
9117;SDS011;4594;50.994;7.126;2023-10-31T13:02:02;3.90;;;1.40;;
9117;SDS011;4594;50.994;7.126;2023-10-31T13:04:32;1.43;;;1.20;;
9117;SDS011;4594;50.994;7.126;2023-10-31T13:06:59;4.63;;;2.50;;
9117;SDS011;4594;50.994;7.126;2023-10-31T13:09:30;4.60;;;2.40;;
9117;SDS011;4594;50.994;7.126;2023-10-31T13:12:01;2.47;;;1.90;;
9117;SDS011;4594;50.994;7.126;2023-10-31T13:14:32;1.60;;;1.40;;
9117;SDS011;4594;50.994;7.126;2023-10-31T13:16:58;4.03;;;1.73;;
9117;SDS011;4594;50.994;7.126;2023-10-31T13:19:25;1.40;;;1.40;;
9117;SDS011;4594;50.994;7.126;2023-10-31T13:21:51;3.20;;;1.80;;
9117;SDS011;4594;50.994;7.126;2023-10-31T13:24:17;3.23;;;1.60;;
9117;SDS011;4594;50.994;7.126;2023-10-31T13:26:43;1.30;;;1.30;;
9117;SDS011;4594;50.994;7.126;2023-10-31T13:29:09;1.77;;;1.67;;
9117;SDS011;4594;50.994;7.126;2023-10-31T13:31:36;1.63;;;1.60;;
9117;SDS011;4594;50.994;7.126;2023-10-31T13:34:03;4.30;;;1.83;;
9117;SDS011;4594;50.994;7.126;2023-10-31T13:36:28;9.57;;;2.27;;
9117;SDS011;4594;50.994;7.126;2023-10-31T13:38:54;2.30;;;2.20;;
9117;SDS011;4594;50.994;7.126;2023-10-31T13:41:20;1.83;;;1.73;;
9117;SDS011;4594;50.994;7.126;2023-10-31T13:43:46;4.93;;;1.93;;
9117;SDS011;4594;50.994;7.126;2023-10-31T13:46:13;5.47;;;1.60;;
9117;SDS011;4594;50.994;7.126;2023-10-31T13:48:39;2.17;;;1.77;;
9117;SDS011;4594;50.994;7.126;2023-10-31T13:51:05;4.97;;;1.40;;
9117;SDS011;4594;50.994;7.126;2023-10-31T13:53:32;2.03;;;1.50;;
9117;SDS011;4594;50.994;7.126;2023-10-31T13:55:57;2.63;;;1.97;;
9117;SDS011;4594;50.994;7.126;2023-10-31T13:58:23;1.83;;;1.57;;
9117;SDS011;4594;50.994;7.126;2023-10-31T14:00:48;7.00;;;1.40;;
9117;SDS011;4594;50.994;7.126;2023-10-31T14:03:14;3.10;;;1.43;;
9117;SDS011;4594;50.994;7.126;2023-10-31T14:05:40;1.97;;;1.73;;
9117;SDS011;4594;50.994;7.126;2023-10-31T14:08:07;2.00;;;1.80;;
9117;SDS011;4594;50.994;7.126;2023-10-31T14:10:33;3.80;;;1.77;;
9117;SDS011;4594;50.994;7.126;2023-10-31T14:12:58;2.57;;;1.90;;
9117;SDS011;4594;50.994;7.126;2023-10-31T14:15:24;2.13;;;1.97;;
9117;SDS011;4594;50.994;7.126;2023-10-31T14:17:50;2.60;;;2.40;;
9117;SDS011;4594;50.994;7.126;2023-10-31T14:20:16;2.03;;;1.90;;
9117;SDS011;4594;50.994;7.126;2023-10-31T14:22:48;1.53;;;1.47;;
9117;SDS011;4594;50.994;7.126;2023-10-31T14:25:15;2.50;;;1.70;;
9117;SDS011;4594;50.994;7.126;2023-10-31T14:27:41;3.83;;;1.70;;
9117;SDS011;4594;50.994;7.126;2023-10-31T14:30:08;2.73;;;1.47;;
9117;SDS011;4594;50.994;7.126;2023-10-31T14:32:36;5.03;;;1.90;;
9117;SDS011;4594;50.994;7.126;2023-10-31T14:35:02;4.63;;;1.80;;
9117;SDS011;4594;50.994;7.126;2023-10-31T14:37:28;1.97;;;1.87;;
9117;SDS011;4594;50.994;7.126;2023-10-31T14:39:54;1.70;;;1.60;;
9117;SDS011;4594;50.994;7.126;2023-10-31T14:42:19;7.20;;;1.50;;
9117;SDS011;4594;50.994;7.126;2023-10-31T14:44:46;4.63;;;2.03;;
9117;SDS011;4594;50.994;7.126;2023-10-31T14:47:12;1.83;;;1.67;;
9117;SDS011;4594;50.994;7.126;2023-10-31T14:49:38;3.20;;;1.80;;
9117;SDS011;4594;50.994;7.126;2023-10-31T14:52:04;2.00;;;1.70;;
9117;SDS011;4594;50.994;7.126;2023-10-31T14:54:33;2.57;;;1.80;;
9117;SDS011;4594;50.994;7.126;2023-10-31T14:57:00;7.17;;;1.80;;
9117;SDS011;4594;50.994;7.126;2023-10-31T14:59:26;2.50;;;1.70;;
9117;SDS011;4594;50.994;7.126;2023-10-31T15:01:52;3.63;;;1.80;;
9117;SDS011;4594;50.994;7.126;2023-10-31T15:04:18;1.80;;;1.70;;
9117;SDS011;4594;50.994;7.126;2023-10-31T15:06:43;4.53;;;2.00;;
9117;SDS011;4594;50.994;7.126;2023-10-31T15:09:09;2.97;;;1.73;;
9117;SDS011;4594;50.994;7.126;2023-10-31T15:11:35;1.93;;;1.83;;
9117;SDS011;4594;50.994;7.126;2023-10-31T15:14:02;2.40;;;1.80;;
9117;SDS011;4594;50.994;7.126;2023-10-31T15:16:28;4.40;;;2.00;;
9117;SDS011;4594;50.994;7.126;2023-10-31T15:18:54;2.87;;;2.50;;
9117;SDS011;4594;50.994;7.126;2023-10-31T15:21:20;4.40;;;3.10;;
9117;SDS011;4594;50.994;7.126;2023-10-31T15:23:46;5.33;;;2.80;;
9117;SDS011;4594;50.994;7.126;2023-10-31T15:26:11;3.97;;;2.80;;
9117;SDS011;4594;50.994;7.126;2023-10-31T15:28:39;8.50;;;2.53;;
9117;SDS011;4594;50.994;7.126;2023-10-31T15:31:07;6.83;;;2.47;;
9117;SDS011;4594;50.994;7.126;2023-10-31T15:33:33;2.40;;;2.20;;